Time;durP1;ratioP1;P1;durP2;ratioP2;P2;SDS_P1;SDS_P2;PMS_P1;PMS_P2;Temp;Humidity;BMP_temperature;BMP_pressure;BME280_temperature;BME280_humidity;BME280_pressure;Samples;Min_cycle;Max_cycle;Signal;HPM_P1;HPM_P2
2023/08/10 04:40:49;;;;;;;23.83;16.55;;;;;;;14.53;100.00;100600.47;5570510;32;198196;-86
2023/08/10 04:43:52;;;;;;;20.52;15.20;;;;;;;14.53;100.00;100600.47;5557789;32;33952;-86
2023/08/10 04:46:55;;;;;;;18.10;14.63;;;;;;;14.12;100.00;100607.44;5558001;32;33819;-85
2023/08/10 04:49:58;;;;;;;17.40;14.25;;;;;;;14.24;100.00;100608.47;5558997;32;34121;-85
2023/08/10 04:53:00;;;;;;;17.17;12.60;;;;;;;14.25;100.00;100604.88;5558345;32;34173;-85
2023/08/10 04:56:03;;;;;;;17.30;12.60;;;;;;;14.30;100.00;100601.94;5557698;32;34624;-84
2023/08/10 04:59:06;;;;;;;13.32;11.12;;;;;;;14.60;100.00;100598.28;5560076;32;35236;-84
2023/08/10 05:02:09;;;;;;;14.20;11.68;;;;;;;14.88;100.00;100607.22;5561335;32;34776;-84
2023/08/10 05:05:13;;;;;;;12.73;11.05;;;;;;;15.16;100.00;100609.94;5560590;32;35069;-84
2023/08/10 05:08:17;;;;;;;14.10;10.57;;;;;;;15.25;100.00;100621.81;5561545;32;34155;-84
2023/08/10 05:11:19;;;;;;;10.55;9.45;;;;;;;15.35;100.00;100623.78;5562003;32;35256;-84
2023/08/10 05:14:22;;;;;;;11.90;10.25;;;;;;;15.46;100.00;100623.09;5561441;32;34149;-82
2023/08/10 05:17:25;;;;;;;11.57;10.25;;;;;;;15.56;100.00;100622.47;5558055;32;34925;-84
2023/08/10 05:20:28;;;;;;;10.57;9.48;;;;;;;15.60;100.00;100626.66;5555891;32;34063;-84
2023/08/10 05:23:30;;;;;;;11.38;9.02;;;;;;;15.73;100.00;100630.22;5556957;32;34424;-82
2023/08/10 05:26:33;;;;;;;9.25;8.05;;;;;;;15.94;100.00;100626.22;5555869;32;35233;-83
2023/08/10 05:29:36;;;;;;;10.52;8.60;;;;;;;15.97;100.00;100629.53;5556204;32;35462;-84
2023/08/10 05:32:42;;;;;;;10.02;8.80;;;;;;;16.14;100.00;100636.41;5555764;32;33616;-83
2023/08/10 05:35:46;;;;;;;8.60;7.70;;;;;;;16.42;100.00;100631.81;5556419;32;34214;-84
2023/08/10 05:38:49;;;;;;;9.60;8.52;;;;;;;16.69;100.00;100641.50;5555732;32;34020;-84
2023/08/10 05:41:52;;;;;;;9.27;7.45;;;;;;;16.88;100.00;100633.97;5556178;32;34021;-84
2023/08/10 05:44:55;;;;;;;10.63;7.72;;;;;;;17.05;100.00;100635.47;5556359;32;34176;-84
2023/08/10 05:47:58;;;;;;;8.85;7.75;;;;;;;16.92;100.00;100636.34;5555559;32;34028;-85
2023/08/10 05:51:01;;;;;;;8.43;7.00;;;;;;;17.43;100.00;100638.94;5548394;32;34517;-83
2023/08/10 05:54:05;;;;;;;7.65;6.72;;;;;;;17.66;100.00;100642.59;5543073;32;33961;-84
2023/08/10 05:57:07;;;;;;;7.43;6.72;;;;;;;17.59;100.00;100644.00;5543420;32;34665;-84
2023/08/10 06:00:13;;;;;;;8.35;7.00;;;;;;;17.44;100.00;100646.87;5543128;32;34107;-84
2023/08/10 06:03:17;;;;;;;6.85;6.20;;;;;;;17.64;100.00;100652.56;5543101;32;33731;-85
2023/08/10 06:06:20;;;;;;;6.72;5.50;;;;;;;17.78;100.00;100649.72;5543289;32;34095;-85
2023/08/10 06:09:23;;;;;;;6.00;5.50;;;;;;;18.14;100.00;100656.91;5543683;32;34421;-85
2023/08/10 06:12:26;;;;;;;5.72;4.93;;;;;;;18.70;100.00;100652.56;5543511;32;34625;-82
2023/08/10 06:15:29;;;;;;;5.57;5.00;;;;;;;19.63;100.00;100661.19;5543249;32;33885;-82
2023/08/10 06:18:32;;;;;;;5.28;4.82;;;;;;;20.37;100.00;100660.44;5543384;32;34568;-82
2023/08/10 06:21:35;;;;;;;4.65;4.25;;;;;;;21.51;100.00;100659.38;5543380;32;34023;-82
2023/08/10 06:24:37;;;;;;;5.18;4.68;;;;;;;23.19;98.37;100669.78;5543267;32;34161;-82
2023/08/10 06:27:41;;;;;;;14.07;4.10;;;;;;;23.52;93.14;100668.31;5542988;32;34723;-82
2023/08/10 06:30:44;;;;;;;5.50;4.60;;;;;;;24.53;88.08;100670.75;5543342;32;34868;-82
2023/08/10 06:33:48;;;;;;;8.45;4.05;;;;;;;24.04;89.31;100669.41;5542878;32;35139;-82
2023/08/10 06:36:52;;;;;;;4.57;4.15;;;;;;;22.79;95.86;100661.91;5542497;32;34736;-82
2023/08/10 06:39:54;;;;;;;4.00;3.70;;;;;;;22.46;97.85;100662.28;5542375;32;34030;-82
2023/08/10 06:42:58;;;;;;;6.03;4.25;;;;;;;22.20;100.00;100664.75;5541895;32;34774;-82
2023/08/10 06:46:01;;;;;;;4.50;3.60;;;;;;;22.12;100.00;100661.94;5542697;32;34220;-82
2023/08/10 06:49:04;;;;;;;10.32;3.58;;;;;;;21.58;100.00;100668.66;5542856;32;34082;-82
2023/08/10 06:52:08;;;;;;;3.75;3.45;;;;;;;20.74;100.00;100670.69;5542315;32;34976;-82
2023/08/10 06:55:14;;;;;;;5.65;3.70;;;;;;;21.09;100.00;100676.66;5542172;32;34035;-83
2023/08/10 06:58:17;;;;;;;3.90;3.55;;;;;;;21.22;100.00;100669.16;5542348;32;34191;-82
2023/08/10 07:01:22;;;;;;;4.97;3.28;;;;;;;21.16;100.00;100683.19;5539282;32;35334;-82
2023/08/10 07:04:25;;;;;;;4.82;2.60;;;;;;;21.52;100.00;100680.84;5540664;32;34058;-82
2023/08/10 07:07:28;;;;;;;4.55;2.67;;;;;;;21.80;100.00;100691.84;5541143;32;34244;-82
2023/08/10 07:10:31;;;;;;;2.90;2.70;;;;;;;22.22;94.13;100692.47;5543290;32;35055;-83
2023/08/10 07:13:33;;;;;;;3.37;2.58;;;;;;;22.28;97.06;100688.34;5543470;32;34194;-82
2023/08/10 07:16:36;;;;;;;2.92;2.55;;;;;;;22.41;95.61;100691.59;5542681;32;34124;-82
2023/08/10 07:19:39;;;;;;;3.10;2.80;;;;;;;22.44;94.32;100687.75;5542573;32;34043;-82
2023/08/10 07:22:45;;;;;;;2.37;2.17;;;;;;;21.66;97.17;100687.66;5542293;32;33995;-82
2023/08/10 07:25:54;;;;;;;2.97;2.70;;;;;;;20.30;100.00;100698.69;5540249;32;34202;-82
2023/08/10 07:28:57;;;;;;;5.40;2.40;;;;;;;20.12;100.00;100692.19;5541016;32;34211;-82
2023/08/10 07:32:00;;;;;;;4.55;2.58;;;;;;;20.87;100.00;100703.69;5542374;32;34127;-83
2023/08/10 07:35:03;;;;;;;4.60;2.60;;;;;;;21.38;100.00;100705.53;5542199;32;34136;-82
2023/08/10 07:38:06;;;;;;;3.30;2.37;;;;;;;20.88;100.00;100699.16;5540315;32;34666;-83
2023/08/10 07:41:09;;;;;;;3.83;2.08;;;;;;;21.00;100.00;100702.59;5542179;32;34112;-82
2023/08/10 07:44:11;;;;;;;4.35;2.62;;;;;;;20.99;100.00;100704.44;5541966;32;34236;-82
2023/08/10 07:47:14;;;;;;;3.30;2.37;;;;;;;20.80;100.00;100705.19;5542821;32;34240;-82
2023/08/10 07:50:17;;;;;;;2.70;2.30;;;;;;;21.46;100.00;100696.75;5542539;32;34212;-82
2023/08/10 07:53:20;;;;;;;2.12;1.95;;;;;;;22.05;100.00;100702.19;5542431;32;34167;-82
2023/08/10 07:56:23;;;;;;;3.22;2.28;;;;;;;22.04;97.51;100698.66;5542213;32;33791;-83
2023/08/10 07:59:26;;;;;;;2.05;1.95;;;;;;;22.04;94.78;100698.66;5542522;32;34048;-83
2023/08/10 08:02:28;;;;;;;2.55;1.80;;;;;;;22.48;91.74;100691.88;5543309;32;34268;-83
2023/08/10 08:05:37;;;;;;;3.90;1.90;;;;;;;21.60;96.82;100699.03;5541953;32;35289;-83
2023/08/10 08:08:40;;;;;;;3.35;2.00;;;;;;;21.66;94.35;100701.16;5541801;32;34070;-83
2023/08/10 08:11:42;;;;;;;10.23;2.10;;;;;;;21.77;95.33;100702.06;5541662;32;35170;-84
2023/08/10 08:14:45;;;;;;;2.12;1.90;;;;;;;22.01;92.53;100714.25;5542139;32;34261;-87
2023/08/10 08:18:25;;;;;;;3.03;2.40;;;;;;;22.46;90.52;100699.25;5541925;32;33488;-87
2023/08/10 08:21:29;;;;;;;3.25;2.20;;;;;;;23.83;85.44;100703.12;5541103;32;33976;-84
2023/08/10 08:24:32;;;;;;;2.47;2.20;;;;;;;24.75;79.26;100715.44;5542010;32;35286;-83
2023/08/10 08:27:35;;;;;;;2.30;2.10;;;;;;;25.10;74.91;100709.19;5541578;32;34674;-84
2023/08/10 08:30:38;;;;;;;2.00;1.90;;;;;;;25.26;75.19;100714.69;5541839;32;35189;-84
2023/08/10 08:33:41;;;;;;;3.90;2.00;;;;;;;25.34;70.97;100713.84;5542373;32;35111;-83
2023/08/10 08:36:44;;;;;;;1.80;1.70;;;;;;;25.49;74.96;100719.47;5541881;32;35113;-83
2023/08/10 08:39:47;;;;;;;2.90;2.40;;;;;;;25.65;63.97;100718.69;5541386;32;34034;-84
2023/08/10 08:42:51;;;;;;;4.30;2.12;;;;;;;24.60;64.57;100719.78;5541844;32;34108;-84
2023/08/10 08:45:57;;;;;;;2.25;1.65;;;;;;;24.63;61.92;100722.16;5541706;32;34301;-83
2023/08/10 08:49:04;;;;;;;2.40;1.83;;;;;;;24.28;60.21;100734.84;5541438;32;34093;-83
2023/08/10 08:52:07;;;;;;;2.53;1.98;;;;;;;25.21;57.28;100730.62;5540806;32;34536;-83
2023/08/10 08:55:11;;;;;;;2.10;1.83;;;;;;;25.94;57.03;100724.69;5540824;32;34084;-83
2023/08/10 08:58:15;;;;;;;1.80;1.70;;;;;;;26.48;55.36;100717.84;5541247;32;33741;-83
2023/08/10 09:01:19;;;;;;;1.80;1.60;;;;;;;27.04;48.20;100720.59;5540456;32;33666;-84
2023/08/10 09:04:22;;;;;;;3.95;1.92;;;;;;;27.21;47.71;100727.84;5540824;32;34178;-84
2023/08/10 09:07:31;;;;;;;3.20;2.90;;;;;;;27.25;43.98;100731.91;5540709;32;35127;-83
2023/08/10 09:10:34;;;;;;;1.87;1.70;;;;;;;27.32;44.42;100727.44;5541260;32;33718;-83
2023/08/10 09:13:37;;;;;;;1.98;1.73;;;;;;;27.85;42.26;100727.63;5540738;32;33615;-83
2023/08/10 09:16:43;;;;;;;2.15;1.85;;;;;;;28.10;40.85;100727.44;5540714;32;34281;-83
2023/08/10 09:19:46;;;;;;;2.00;1.85;;;;;;;28.07;39.00;100724.22;5543888;32;34121;-83
2023/08/10 09:22:50;;;;;;;1.40;1.30;;;;;;;27.14;39.30;100723.09;5540477;32;34045;-82
2023/08/10 09:25:56;;;;;;;1.58;1.20;;;;;;;28.50;37.88;100734.56;5540868;32;34151;-82
2023/08/10 09:28:59;;;;;;;2.22;1.50;;;;;;;29.35;33.34;100733.44;5543281;32;34645;-83
2023/08/10 09:32:02;;;;;;;1.55;1.45;;;;;;;29.60;34.59;100731.19;5538235;32;34166;-85
2023/08/10 09:35:13;;;;;;;2.65;1.80;;;;;;;29.19;33.67;100729.88;5537358;32;33907;-85
2023/08/10 09:38:19;;;;;;;1.80;1.70;;;;;;;29.69;32.04;100724.59;5537328;32;33971;-85
2023/08/10 09:41:23;;;;;;;3.00;1.62;;;;;;;29.73;32.44;100725.03;5537886;32;34037;-85
2023/08/10 09:44:26;;;;;;;1.65;1.55;;;;;;;29.79;32.49;100727.00;5545331;32;34092;-88
2023/08/10 09:47:34;;;;;;;2.30;1.55;;;;;;;29.85;31.84;100728.09;5547563;32;34719;-85
2023/08/10 09:50:37;;;;;;;2.42;1.83;;;;;;;28.99;33.65;100729.63;5546801;32;34694;-85
2023/08/10 09:53:40;;;;;;;2.85;1.37;;;;;;;29.08;32.19;100728.50;5537794;32;34878;-86
2023/08/10 09:56:43;;;;;;;1.95;1.17;;;;;;;30.47;30.87;100730.31;5536202;32;34223;-86
2023/08/10 09:59:46;;;;;;;2.65;1.62;;;;;;;30.79;28.29;100734.31;5536366;32;34276;-86
2023/08/10 10:02:49;;;;;;;1.62;1.50;;;;;;;31.33;28.07;100731.81;5536511;32;33554;-86
2023/08/10 10:05:52;;;;;;;1.50;1.40;;;;;;;32.79;27.49;100737.81;5535776;32;33587;-86
2023/08/10 10:09:00;;;;;;;3.15;1.40;;;;;;;33.98;25.44;100739.34;5534999;32;34032;-86
2023/08/10 10:12:07;;;;;;;1.62;1.52;;;;;;;33.71;24.94;100736.78;5536067;32;33589;-86
2023/08/10 10:15:11;;;;;;;1.75;1.50;;;;;;;30.69;29.36;100727.50;5534778;32;33574;-86
2023/08/10 10:18:14;;;;;;;2.35;1.60;;;;;;;31.20;28.26;100720.78;5536586;32;33997;-86
2023/08/10 10:21:17;;;;;;;2.28;1.50;;;;;;;31.32;28.20;100716.44;5536380;32;34545;-86
2023/08/10 10:24:21;;;;;;;2.37;1.65;;;;;;;30.89;29.20;100709.31;5537784;32;34062;-86
2023/08/10 10:27:38;;;;;;;1.65;1.55;;;;;;;29.56;31.30;100719.00;5537396;32;34205;-86
2023/08/10 10:30:56;;;;;;;3.33;2.87;;;;;;;29.88;30.51;100719.50;5537968;32;33753;-86
2023/08/10 10:34:01;;;;;;;2.50;2.30;;;;;;;29.08;31.44;100717.56;5537072;32;33613;-86
2023/08/10 10:37:10;;;;;;;2.28;1.60;;;;;;;29.80;31.89;100723.22;5536821;32;34301;-86
2023/08/10 10:40:15;;;;;;;1.50;1.40;;;;;;;31.71;28.59;100713.12;5536572;32;34059;-86
2023/08/10 10:43:19;;;;;;;1.87;1.20;;;;;;;34.71;23.75;100721.53;5540965;32;34149;-86
2023/08/10 10:46:33;;;;;;;1.40;1.30;;;;;;;36.15;21.29;100723.81;5535858;32;34081;-86
2023/08/10 10:49:52;;;;;;;1.55;1.40;;;;;;;36.22;21.87;100716.25;5538885;32;33965;-86
2023/08/10 10:53:05;;;;;;;1.48;1.37;;;;;;;31.87;23.94;100712.78;5538657;32;35100;-86
2023/08/10 10:56:09;;;;;;;2.47;1.37;;;;;;;30.56;26.21;100718.13;5540897;32;34124;-89
2023/08/10 10:59:13;;;;;;;1.40;1.30;;;;;;;30.64;26.89;100707.03;5539047;32;33870;-90
2023/08/10 11:02:16;;;;;;;1.15;1.10;;;;;;;29.80;27.63;100705.94;5535990;32;35291;-90
2023/08/10 11:05:20;;;;;;;2.67;1.37;;;;;;;30.38;24.99;100705.81;5536871;32;34688;-87
2023/08/10 11:08:24;;;;;;;1.95;1.10;;;;;;;28.58;27.16;100717.28;5538562;32;34492;-87
2023/08/10 11:11:26;;;;;;;1.73;1.10;;;;;;;28.61;26.67;100708.72;5535792;32;34115;-87
2023/08/10 11:14:29;;;;;;;2.58;1.50;;;;;;;29.21;27.36;100700.47;5535916;32;33811;-87
2023/08/10 11:17:32;;;;;;;1.65;1.48;;;;;;;29.78;26.58;100699.84;5536505;32;33902;-87
2023/08/10 11:20:51;;;;;;;3.90;1.60;;;;;;;30.88;24.73;100699.38;5535060;32;33674;-87
2023/08/10 11:23:57;;;;;;;4.70;1.77;;;;;;;30.83;26.24;100690.97;5535268;32;33802;-86
2023/08/10 11:27:01;;;;;;;1.92;1.70;;;;;;;29.25;29.26;100693.59;5535190;32;33966;-86
2023/08/10 11:30:05;;;;;;;2.62;2.10;;;;;;;28.49;30.20;100692.81;5535664;32;34881;-86
2023/08/10 11:33:07;;;;;;;2.15;1.35;;;;;;;27.85;31.21;100683.16;5535490;32;34108;-86
2023/08/10 11:36:13;;;;;;;1.73;1.55;;;;;;;27.89;32.36;100678.19;5536277;32;34000;-86
2023/08/10 11:39:17;;;;;;;1.80;1.15;;;;;;;26.98;33.26;100677.75;5534790;32;34108;-86
2023/08/10 11:42:22;;;;;;;1.40;1.30;;;;;;;27.81;30.63;100682.69;5536376;32;34096;-86
2023/08/10 11:45:25;;;;;;;1.40;1.30;;;;;;;27.97;28.44;100678.97;5536219;32;34125;-86
2023/08/10 11:48:29;;;;;;;2.15;1.70;;;;;;;27.29;32.11;100676.03;5534145;32;34044;-86
2023/08/10 11:51:36;;;;;;;2.45;1.40;;;;;;;26.91;33.71;100674.06;5535072;32;33862;-86
2023/08/10 11:54:38;;;;;;;2.50;1.60;;;;;;;27.57;33.35;100672.81;5535111;32;33952;-86
2023/08/10 11:57:51;;;;;;;1.60;1.50;;;;;;;27.81;32.69;100671.78;5535080;32;33950;-86
2023/08/10 12:00:54;;;;;;;6.72;1.77;;;;;;;27.75;30.22;100671.69;5535637;32;33781;-86
2023/08/10 12:03:57;;;;;;;1.55;1.45;;;;;;;27.55;31.72;100667.53;5535932;32;33941;-86
